createdAt,value
2017-09-06T00:01:19.697Z,65.00
2017-09-06T00:03:47.794Z,65.00
2017-09-06T00:06:15.870Z,64.70
2017-09-06T00:08:44.002Z,65.20
2017-09-06T00:11:12.502Z,64.00
2017-09-06T00:13:40.672Z,64.70
2017-09-06T00:16:08.849Z,64.90
2017-09-06T00:18:37.335Z,65.00
2017-09-06T00:21:05.514Z,65.50
2017-09-06T00:23:33.681Z,64.20
2017-09-06T00:26:01.858Z,64.80
2017-09-06T00:28:30.030Z,65.30
2017-09-06T00:30:58.206Z,64.30
2017-09-06T00:33:26.374Z,64.30
2017-09-06T00:35:54.551Z,64.50
2017-09-06T00:38:22.622Z,63.90
2017-09-06T00:40:50.803Z,64.30
2017-09-06T00:43:18.873Z,63.50
2017-09-06T00:45:47.046Z,64.10
2017-09-06T00:48:15.629Z,63.00
2017-09-06T00:50:44.109Z,62.80
2017-09-06T00:53:12.212Z,63.30
2017-09-06T00:55:40.273Z,63.80
2017-09-06T00:58:08.343Z,64.50
2017-09-06T01:00:36.497Z,63.80
2017-09-06T01:03:04.674Z,63.10
2017-09-06T01:05:32.846Z,63.70
2017-09-06T01:08:01.021Z,63.60
2017-09-06T01:10:29.197Z,64.20
2017-09-06T01:12:57.369Z,63.60
2017-09-06T01:15:25.482Z,64.10
2017-09-06T01:17:53.622Z,63.40
2017-09-06T01:20:21.789Z,63.80
2017-09-06T01:22:49.878Z,63.80
2017-09-06T01:25:18.037Z,64.40
2017-09-06T01:27:46.218Z,64.90
2017-09-06T01:30:14.390Z,65.50
2017-09-06T01:32:42.562Z,64.10
2017-09-06T01:35:10.738Z,64.60
2017-09-06T01:37:38.905Z,64.60
2017-09-06T01:40:07.002Z,64.70
2017-09-06T01:42:35.161Z,64.80
2017-09-06T01:45:03.325Z,64.60
2017-09-06T01:47:31.506Z,65.10
2017-09-06T01:49:59.682Z,65.40
2017-09-06T01:52:27.858Z,65.40
2017-09-06T01:54:56.035Z,65.70
2017-09-06T01:57:24.207Z,66.00
2017-09-06T01:59:52.418Z,66.30
2017-09-06T02:02:20.554Z,65.50
2017-09-06T02:04:48.657Z,65.40
2017-09-06T02:07:16.811Z,66.00
2017-09-06T02:09:44.974Z,65.30
2017-09-06T02:12:13.063Z,65.30
2017-09-06T02:14:41.145Z,64.80
2017-09-06T02:17:09.244Z,65.00
2017-09-06T02:19:38.182Z,66.30
2017-09-06T02:22:07.078Z,65.30
2017-09-06T02:24:35.167Z,65.90
2017-09-06T02:27:03.327Z,64.60
2017-09-06T02:29:32.256Z,65.10
2017-09-06T02:32:00.330Z,65.30
2017-09-06T02:34:28.461Z,64.80
2017-09-06T02:36:56.630Z,64.70
2017-09-06T02:39:24.811Z,64.90
2017-09-06T02:41:52.888Z,64.20
2017-09-06T02:44:20.988Z,64.10
2017-09-06T02:46:49.131Z,64.70
2017-09-06T02:49:17.201Z,64.10
2017-09-06T02:51:45.375Z,64.10
2017-09-06T02:54:13.574Z,64.30
2017-09-06T02:56:41.719Z,63.80
2017-09-06T02:59:09.890Z,63.70
2017-09-06T03:01:38.075Z,64.20
2017-09-06T03:04:06.242Z,63.70
2017-09-06T03:06:34.414Z,63.50
2017-09-06T03:09:03.291Z,64.10
2017-09-06T03:11:32.139Z,63.00
2017-09-06T03:14:00.985Z,64.10
2017-09-06T03:16:29.167Z,63.50
2017-09-06T03:18:57.243Z,63.50
2017-09-06T03:21:25.822Z,63.70
2017-09-06T03:23:53.990Z,64.20
2017-09-06T03:26:22.200Z,64.10
2017-09-06T03:28:50.347Z,63.80
2017-09-06T03:31:18.423Z,64.00
2017-09-06T03:33:46.624Z,64.60
2017-09-06T03:36:15.594Z,64.40
2017-09-06T03:38:43.758Z,64.50
2017-09-06T03:41:11.926Z,65.30
2017-09-06T03:43:40.111Z,64.90
2017-09-06T03:46:08.222Z,65.50
2017-09-06T03:48:36.355Z,65.10
2017-09-06T03:51:04.535Z,64.00
2017-09-06T03:53:33.110Z,63.50
2017-09-06T03:56:01.697Z,64.00
2017-09-06T03:58:29.871Z,63.70
2017-09-06T04:00:58.352Z,63.40
2017-09-06T04:03:26.528Z,63.60
2017-09-06T04:05:54.701Z,64.30
2017-09-06T04:08:22.803Z,64.80
2017-09-06T04:10:50.947Z,64.60
2017-09-06T04:13:19.119Z,64.10
2017-09-06T04:15:47.301Z,64.30
2017-09-06T04:18:15.791Z,64.70
2017-09-06T04:20:43.946Z,65.20
2017-09-06T04:23:12.121Z,65.70
2017-09-06T04:25:40.304Z,65.20
2017-09-06T04:28:08.887Z,64.80
2017-09-06T04:30:37.061Z,65.00
2017-09-06T04:33:05.226Z,64.90
2017-09-06T04:35:33.398Z,65.70
2017-09-06T04:38:01.466Z,65.10
2017-09-06T04:40:29.561Z,65.70
2017-09-06T04:42:57.717Z,65.70
2017-09-06T04:45:25.791Z,66.20
2017-09-06T04:47:53.965Z,66.30
2017-09-06T04:50:22.047Z,64.80
2017-09-06T04:52:50.930Z,64.10
2017-09-06T04:55:19.002Z,64.90
2017-09-06T04:57:47.098Z,64.50
2017-09-06T05:00:15.653Z,64.60
2017-09-06T05:02:43.725Z,63.80
2017-09-06T05:05:11.825Z,64.10
2017-09-06T05:07:39.979Z,63.60
2017-09-06T05:10:08.150Z,63.50
2017-09-06T05:12:36.227Z,64.30
2017-09-06T05:15:04.702Z,64.10
2017-09-06T05:17:32.793Z,64.60
2017-09-06T05:20:01.667Z,64.10
2017-09-06T05:22:29.843Z,64.30
2017-09-06T05:24:58.019Z,64.20
2017-09-06T05:27:26.099Z,64.50
2017-09-06T05:29:54.272Z,64.30
2017-09-06T05:32:22.434Z,64.20
2017-09-06T05:34:50.616Z,64.10
2017-09-06T05:37:18.788Z,64.40
2017-09-06T05:39:47.670Z,64.20
2017-09-06T05:42:16.263Z,63.70
2017-09-06T05:44:44.440Z,63.10
2017-09-06T05:47:12.514Z,62.80
2017-09-06T05:49:40.615Z,62.10
2017-09-06T05:52:08.691Z,61.70
2017-09-06T05:54:36.822Z,61.00
2017-09-06T05:57:05.013Z,61.70
2017-09-06T05:59:33.175Z,60.90
2017-09-06T06:02:01.255Z,61.30
2017-09-06T06:04:29.342Z,61.10
2017-09-06T06:06:57.903Z,60.20
2017-09-06T06:09:26.767Z,60.30
2017-09-06T06:11:55.688Z,60.00
2017-09-06T06:14:23.828Z,60.00
2017-09-06T06:16:52.343Z,60.00
2017-09-06T06:19:20.810Z,59.70
2017-09-06T06:21:49.715Z,59.90
2017-09-06T06:24:17.795Z,59.30
2017-09-06T06:26:46.670Z,59.10
2017-09-06T06:29:14.846Z,58.20
2017-09-06T06:31:43.334Z,57.30
2017-09-06T06:34:11.494Z,56.60
2017-09-06T06:36:39.678Z,56.00
2017-09-06T06:39:07.846Z,55.40
2017-09-06T06:41:35.947Z,54.20
2017-09-06T06:44:04.023Z,52.80
2017-09-06T06:46:32.895Z,52.60
2017-09-06T06:49:00.982Z,51.20
2017-09-06T06:51:29.135Z,50.80
2017-09-06T06:53:57.311Z,51.50
2017-09-06T06:56:26.172Z,51.30
2017-09-06T06:58:54.370Z,51.90
2017-09-06T07:01:22.855Z,52.80
2017-09-06T07:03:51.031Z,53.30
2017-09-06T07:06:19.220Z,53.30
2017-09-06T07:08:47.378Z,53.80
2017-09-06T07:11:15.946Z,53.70
2017-09-06T07:13:44.846Z,53.70
2017-09-06T07:16:13.047Z,53.40
2017-09-06T07:18:41.134Z,53.10
2017-09-06T07:21:10.096Z,54.10
2017-09-06T07:23:38.271Z,53.40
2017-09-06T07:26:06.359Z,53.00
2017-09-06T07:28:34.924Z,53.00
2017-09-06T07:31:03.095Z,52.80
2017-09-06T07:33:31.188Z,52.70
2017-09-06T07:35:59.338Z,52.20
2017-09-06T07:38:28.236Z,52.90
2017-09-06T07:40:56.411Z,52.50
2017-09-06T07:43:24.587Z,51.40
2017-09-06T07:45:53.176Z,51.70
2017-09-06T07:48:21.353Z,50.70
2017-09-06T07:50:49.519Z,51.70
2017-09-06T07:53:17.695Z,51.40
2017-09-06T07:55:45.783Z,50.60
2017-09-06T07:58:13.934Z,50.10
2017-09-06T08:00:42.114Z,49.40
2017-09-06T08:03:10.607Z,48.20
2017-09-06T08:05:39.074Z,47.60
2017-09-06T08:08:09.497Z,47.50
2017-09-06T08:10:37.670Z,46.90
2017-09-06T08:13:05.856Z,45.10
2017-09-06T08:15:34.439Z,42.60
2017-09-06T08:18:02.915Z,41.90
2017-09-06T08:20:31.803Z,39.70
2017-09-06T08:22:59.892Z,38.90
2017-09-06T08:25:27.983Z,40.20
2017-09-06T08:27:56.828Z,42.50
2017-09-06T08:30:25.692Z,43.00
2017-09-06T08:32:53.769Z,43.50
2017-09-06T08:35:22.622Z,43.50
2017-09-06T08:37:50.727Z,43.50
2017-09-06T08:40:18.794Z,43.40
2017-09-06T08:42:47.639Z,42.70
2017-09-06T08:45:15.731Z,42.10
2017-09-06T08:47:43.839Z,41.20
2017-09-06T08:50:11.921Z,41.40
2017-09-06T08:52:39.996Z,42.10
2017-09-06T08:55:08.082Z,43.40
2017-09-06T08:57:36.154Z,43.40
2017-09-06T09:00:04.330Z,44.40
2017-09-06T09:02:32.811Z,44.10
2017-09-06T09:05:00.991Z,44.20
2017-09-06T09:07:29.164Z,43.60
2017-09-06T09:09:57.233Z,42.40
2017-09-06T09:12:26.131Z,41.20
2017-09-06T09:14:54.303Z,41.00
2017-09-06T09:17:22.474Z,39.50
2017-09-06T09:19:51.371Z,39.60
2017-09-06T09:22:19.534Z,39.50
2017-09-06T09:24:48.395Z,36.80
2017-09-06T09:27:16.507Z,38.30
2017-09-06T09:29:44.675Z,36.10
2017-09-06T09:32:12.750Z,35.90
2017-09-06T09:34:40.917Z,35.20
2017-09-06T09:37:09.094Z,33.40
2017-09-06T09:39:37.190Z,33.50
2017-09-06T09:42:05.679Z,31.70
2017-09-06T09:44:33.779Z,31.10
2017-09-06T09:47:01.858Z,32.50
2017-09-06T09:49:29.963Z,32.50
2017-09-06T09:51:58.440Z,34.00
2017-09-06T09:54:26.515Z,33.80
2017-09-06T09:56:54.610Z,34.90
2017-09-06T09:59:23.083Z,35.00
2017-09-06T10:01:51.176Z,35.00
2017-09-06T10:04:19.279Z,36.10
2017-09-06T10:06:47.355Z,42.90
2017-09-06T10:09:15.455Z,43.20
2017-09-06T10:11:43.527Z,44.20
2017-09-06T10:14:11.599Z,47.00
2017-09-06T10:16:40.456Z,50.40
2017-09-06T10:19:08.550Z,53.10
2017-09-06T10:21:36.636Z,53.60
2017-09-06T10:24:04.747Z,55.10
2017-09-06T10:26:32.843Z,53.00
2017-09-06T10:29:01.323Z,51.50
2017-09-06T10:31:29.816Z,52.00
2017-09-06T10:33:58.663Z,51.40
2017-09-06T10:36:27.535Z,50.00
2017-09-06T10:38:55.606Z,46.80
2017-09-06T10:41:23.698Z,48.50
2017-09-06T10:43:51.806Z,49.00
2017-09-06T10:46:19.887Z,48.10
2017-09-06T10:48:47.967Z,48.60
2017-09-06T10:51:16.070Z,49.30
2017-09-06T10:53:44.172Z,48.70
2017-09-06T10:56:12.267Z,44.90
2017-09-06T10:58:40.363Z,40.90
2017-09-06T11:01:08.459Z,41.50
2017-09-06T11:03:36.559Z,36.70
2017-09-06T11:06:04.666Z,34.90
2017-09-06T11:08:32.756Z,35.30
2017-09-06T11:11:00.887Z,32.10
2017-09-06T11:13:28.972Z,32.50
2017-09-06T11:15:57.038Z,29.30
2017-09-06T11:18:25.899Z,29.40
2017-09-06T11:20:53.999Z,29.30
2017-09-06T11:23:22.070Z,28.90
2017-09-06T11:25:50.142Z,28.70
2017-09-06T11:28:18.234Z,26.70
2017-09-06T11:30:46.310Z,25.90
2017-09-06T11:33:14.805Z,24.60
2017-09-06T11:35:42.869Z,25.00
2017-09-06T11:38:10.947Z,27.70
2017-09-06T11:40:39.038Z,29.80
2017-09-06T11:43:07.126Z,28.00
2017-09-06T11:45:35.214Z,28.00
2017-09-06T11:48:03.344Z,26.30
2017-09-06T11:50:31.390Z,23.00
2017-09-06T11:52:59.478Z,23.70
2017-09-06T11:55:27.575Z,18.40
2017-09-06T11:57:55.655Z,19.10
2017-09-06T12:00:23.764Z,19.10
2017-09-06T12:02:51.835Z,17.40
2017-09-06T12:05:20.679Z,18.00
2017-09-06T12:07:48.791Z,18.00
2017-09-06T12:10:16.871Z,18.40
2017-09-06T12:12:44.948Z,18.90
2017-09-06T12:15:13.038Z,18.70
2017-09-06T12:17:41.119Z,18.70
2017-09-06T12:20:09.210Z,19.10
2017-09-06T12:22:37.295Z,20.00
2017-09-06T12:25:05.370Z,20.40
2017-09-06T12:27:33.482Z,19.00
2017-09-06T12:30:01.555Z,20.50
2017-09-06T12:32:29.636Z,18.40
2017-09-06T12:34:57.747Z,18.00
2017-09-06T12:37:25.822Z,19.30
2017-09-06T12:39:53.907Z,20.70
2017-09-06T12:42:22.012Z,20.30
2017-09-06T12:44:50.096Z,21.40
2017-09-06T12:47:18.178Z,22.00
2017-09-06T12:49:46.259Z,22.50
2017-09-06T12:52:14.361Z,22.40
2017-09-06T12:54:42.446Z,20.80
2017-09-06T12:57:10.520Z,20.40
2017-09-06T12:59:38.610Z,20.80
2017-09-06T13:02:07.450Z,22.40
2017-09-06T13:04:35.542Z,22.30
2017-09-06T13:07:03.610Z,23.50
2017-09-06T13:09:32.532Z,23.90
2017-09-06T13:12:00.615Z,23.70
2017-09-06T13:14:28.700Z,23.80
2017-09-06T13:16:56.807Z,24.20
2017-09-06T13:19:24.882Z,23.70
2017-09-06T13:21:52.964Z,24.20
2017-09-06T13:24:21.060Z,21.50
2017-09-06T13:26:49.155Z,22.10
2017-09-06T13:29:17.246Z,23.80
2017-09-06T13:31:45.336Z,24.20
2017-09-06T13:34:13.814Z,24.80
2017-09-06T13:36:41.896Z,25.30
2017-09-06T13:39:10.760Z,24.70
2017-09-06T13:41:38.859Z,25.10
2017-09-06T13:44:07.002Z,25.20
2017-09-06T13:46:35.511Z,24.20
2017-09-06T13:49:03.563Z,24.60
2017-09-06T13:51:31.688Z,23.50
2017-09-06T13:53:59.796Z,23.40
2017-09-06T13:56:27.872Z,19.50
2017-09-06T13:58:55.952Z,17.20
2017-09-06T14:01:24.042Z,17.50
2017-09-06T14:03:52.516Z,17.30
2017-09-06T14:06:20.615Z,18.50
2017-09-06T14:08:48.691Z,20.30
2017-09-06T14:11:16.780Z,20.90
2017-09-06T14:13:44.872Z,21.60
2017-09-06T14:16:13.740Z,22.40
2017-09-06T14:18:41.858Z,22.10
2017-09-06T14:21:09.934Z,21.60
2017-09-06T14:23:38.018Z,22.60
2017-09-06T14:26:06.118Z,23.60
2017-09-06T14:28:34.199Z,24.00
2017-09-06T14:31:02.274Z,23.10
2017-09-06T14:33:30.363Z,23.40
2017-09-06T14:35:58.438Z,22.40
2017-09-06T14:38:26.947Z,22.60
2017-09-06T14:40:55.023Z,22.00
2017-09-06T14:43:23.491Z,20.70
2017-09-06T14:45:51.591Z,21.20
2017-09-06T14:48:19.662Z,20.00
2017-09-06T14:50:47.754Z,21.10
2017-09-06T14:53:15.865Z,21.40
2017-09-06T14:55:43.952Z,21.90
2017-09-06T14:58:12.786Z,21.20
2017-09-06T15:00:40.868Z,22.20
2017-09-06T15:03:08.955Z,23.10
2017-09-06T15:05:37.030Z,22.70
2017-09-06T15:08:05.519Z,22.20
2017-09-06T15:10:33.986Z,22.80
2017-09-06T15:13:02.479Z,21.90
2017-09-06T15:15:30.571Z,22.30
2017-09-06T15:17:58.652Z,17.40
2017-09-06T15:20:26.792Z,17.80
2017-09-06T15:22:54.871Z,16.30
2017-09-06T15:25:22.951Z,17.40
2017-09-06T15:27:51.051Z,19.20
2017-09-06T15:30:19.216Z,20.50
2017-09-06T15:32:47.346Z,20.90
2017-09-06T15:35:15.814Z,20.20
2017-09-06T15:37:43.890Z,20.60
2017-09-06T15:40:11.991Z,17.10
2017-09-06T15:42:40.065Z,17.90
2017-09-06T15:45:08.154Z,17.40
2017-09-06T15:47:36.254Z,16.40
2017-09-06T15:50:04.336Z,17.30
2017-09-06T15:52:32.419Z,17.10
2017-09-06T15:55:00.515Z,18.30
2017-09-06T15:57:28.605Z,18.90
2017-09-06T15:59:56.679Z,18.40
2017-09-06T16:02:24.771Z,18.60
2017-09-06T16:04:52.912Z,18.60
2017-09-06T16:07:21.742Z,17.90
2017-09-06T16:09:49.819Z,17.60
2017-09-06T16:12:17.933Z,17.90
2017-09-06T16:14:46.006Z,18.20
2017-09-06T16:17:14.083Z,18.70
2017-09-06T16:19:42.182Z,20.40
2017-09-06T16:22:11.663Z,21.20
2017-09-06T16:24:39.733Z,21.70
2017-09-06T16:27:08.599Z,22.70
2017-09-06T16:29:36.671Z,23.00
2017-09-06T16:32:04.771Z,24.60
2017-09-06T16:34:32.853Z,24.30
2017-09-06T16:37:00.954Z,24.10
2017-09-06T16:39:29.046Z,24.80
2017-09-06T16:41:57.123Z,24.70
2017-09-06T16:44:25.715Z,24.90
2017-09-06T16:46:53.883Z,25.30
2017-09-06T16:49:21.959Z,25.40
2017-09-06T16:51:50.132Z,25.50
2017-09-06T16:54:18.311Z,26.90
2017-09-06T16:56:46.480Z,26.90
2017-09-06T16:59:14.602Z,26.70
2017-09-06T17:01:43.820Z,26.30
2017-09-06T17:04:11.920Z,26.70
2017-09-06T17:06:40.123Z,26.80
2017-09-06T17:09:08.273Z,27.30
2017-09-06T17:11:36.375Z,26.60
2017-09-06T17:14:04.510Z,26.90
2017-09-06T17:16:32.686Z,27.10
2017-09-06T17:19:00.757Z,27.40
2017-09-06T17:21:28.930Z,26.80
2017-09-06T17:23:57.107Z,26.90
2017-09-06T17:26:25.695Z,27.10
2017-09-06T17:28:54.433Z,26.90
2017-09-06T17:31:22.495Z,27.10
2017-09-06T17:33:51.335Z,27.00
2017-09-06T17:36:19.510Z,27.20
2017-09-06T17:38:47.691Z,26.80
2017-09-06T17:41:15.827Z,27.00
2017-09-06T17:43:43.962Z,27.50
2017-09-06T17:46:13.703Z,27.60
2017-09-06T17:48:41.779Z,27.50
2017-09-06T17:51:09.888Z,27.80
2017-09-06T17:53:37.967Z,27.80
2017-09-06T17:56:06.806Z,28.40
2017-09-06T17:58:34.907Z,28.60
2017-09-06T18:01:02.994Z,28.60
2017-09-06T18:03:31.069Z,28.50
2017-09-06T18:05:59.926Z,28.60
2017-09-06T18:08:28.787Z,29.00
2017-09-06T18:10:56.887Z,29.40
2017-09-06T18:13:24.967Z,29.70
2017-09-06T18:15:53.038Z,29.20
2017-09-06T18:18:22.060Z,28.50
2017-09-06T18:20:50.139Z,28.40
2017-09-06T18:23:18.247Z,28.90
2017-09-06T18:25:46.323Z,28.80
2017-09-06T18:28:14.399Z,29.10
2017-09-06T18:30:42.495Z,29.70
2017-09-06T18:33:10.575Z,28.90
2017-09-06T18:35:38.683Z,29.20
2017-09-06T18:38:06.758Z,29.30
2017-09-06T18:40:34.903Z,29.10
2017-09-06T18:43:02.984Z,29.30
2017-09-06T18:45:31.059Z,29.40
2017-09-06T18:47:59.159Z,29.90
2017-09-06T18:50:27.243Z,29.50
2017-09-06T18:52:55.330Z,29.90
2017-09-06T18:55:23.410Z,29.80
2017-09-06T18:57:51.510Z,30.20
2017-09-06T19:00:20.386Z,30.40
2017-09-06T19:02:49.637Z,30.40
2017-09-06T19:05:17.719Z,29.90
2017-09-06T19:07:45.811Z,30.30
2017-09-06T19:10:13.900Z,30.40
2017-09-06T19:12:41.994Z,30.70
2017-09-06T19:15:10.858Z,30.50
2017-09-06T19:17:38.935Z,31.00
2017-09-06T19:20:07.016Z,30.60
2017-09-06T19:22:35.102Z,30.90
2017-09-06T19:25:03.179Z,30.90
2017-09-06T19:27:31.282Z,32.00
2017-09-06T19:29:59.750Z,32.40
2017-09-06T19:32:27.822Z,32.90
2017-09-06T19:34:56.690Z,33.30
2017-09-06T19:37:25.550Z,34.10
2017-09-06T19:39:53.632Z,34.10
2017-09-06T19:42:21.730Z,34.50
2017-09-06T19:44:49.814Z,34.60
2017-09-06T19:47:17.919Z,35.20
2017-09-06T19:49:46.002Z,34.90
2017-09-06T19:52:14.083Z,35.40
2017-09-06T19:54:42.183Z,35.90
2017-09-06T19:57:10.675Z,34.90
2017-09-06T19:59:39.150Z,36.40
2017-09-06T20:02:07.645Z,34.70
2017-09-06T20:04:36.279Z,35.30
2017-09-06T20:07:04.350Z,35.70
2017-09-06T20:09:33.243Z,35.90
2017-09-06T20:12:01.350Z,36.40
2017-09-06T20:14:29.422Z,36.80
2017-09-06T20:16:57.685Z,36.40
2017-09-06T20:19:25.804Z,36.50
2017-09-06T20:21:53.992Z,37.10
2017-09-06T20:24:22.071Z,37.00
2017-09-06T20:26:50.162Z,36.90
2017-09-06T20:29:18.239Z,37.40
2017-09-06T20:31:46.374Z,37.20
2017-09-06T20:34:14.447Z,38.40
2017-09-06T20:36:42.530Z,37.70
2017-09-06T20:39:10.623Z,38.00
2017-09-06T20:41:38.726Z,38.40
2017-09-06T20:44:06.829Z,38.60
2017-09-06T20:46:35.651Z,39.30
2017-09-06T20:49:03.751Z,38.80
2017-09-06T20:51:31.835Z,39.90
2017-09-06T20:54:01.551Z,38.80
2017-09-06T20:56:29.631Z,39.20
2017-09-06T20:58:57.732Z,38.30
2017-09-06T21:01:25.833Z,38.60
2017-09-06T21:03:53.911Z,37.10
2017-09-06T21:06:22.019Z,38.70
2017-09-06T21:08:50.099Z,36.50
2017-09-06T21:11:18.179Z,36.70
2017-09-06T21:13:46.278Z,37.20
2017-09-06T21:16:14.349Z,36.00
2017-09-06T21:18:42.448Z,35.20
2017-09-06T21:21:10.531Z,36.70
2017-09-06T21:23:38.651Z,37.10
2017-09-06T21:26:07.499Z,36.40
2017-09-06T21:28:35.574Z,36.10
2017-09-06T21:31:03.662Z,36.40
2017-09-06T21:33:31.779Z,37.40
2017-09-06T21:35:59.873Z,38.60
2017-09-06T21:38:27.951Z,39.20
2017-09-06T21:40:56.047Z,38.20
2017-09-06T21:43:24.199Z,37.60
2017-09-06T21:45:52.240Z,38.10
2017-09-06T21:48:20.324Z,37.20
2017-09-06T21:50:48.423Z,39.00
2017-09-06T21:53:17.391Z,38.80
2017-09-06T21:55:45.499Z,38.70
2017-09-06T21:58:13.579Z,38.30
2017-09-06T22:00:41.731Z,39.40
2017-09-06T22:03:10.582Z,39.50
2017-09-06T22:05:38.655Z,39.50
2017-09-06T22:08:06.756Z,40.60
2017-09-06T22:10:34.841Z,39.90
2017-09-06T22:13:02.934Z,39.70
2017-09-06T22:15:31.019Z,40.70
2017-09-06T22:17:59.138Z,39.50
2017-09-06T22:20:27.206Z,40.50
2017-09-06T22:22:55.291Z,40.60
2017-09-06T22:25:23.377Z,41.60
2017-09-06T22:27:51.454Z,40.90
2017-09-06T22:30:20.330Z,41.20
2017-09-06T22:32:48.411Z,41.20
2017-09-06T22:35:16.481Z,41.90
2017-09-06T22:37:45.350Z,41.30
2017-09-06T22:40:13.427Z,41.30
2017-09-06T22:42:41.527Z,41.90
2017-09-06T22:45:09.606Z,42.40
2017-09-06T22:47:37.719Z,43.20
2017-09-06T22:50:05.794Z,42.00
2017-09-06T22:52:33.878Z,43.70
2017-09-06T22:55:01.982Z,44.10
2017-09-06T22:57:30.063Z,42.80
2017-09-06T22:59:58.143Z,42.80
2017-09-06T23:02:26.256Z,43.50
2017-09-06T23:04:54.326Z,43.80
2017-09-06T23:07:22.403Z,43.90
2017-09-06T23:09:50.524Z,43.30
2017-09-06T23:12:18.593Z,44.30
2017-09-06T23:14:46.683Z,44.20
2017-09-06T23:17:14.788Z,44.00
2017-09-06T23:19:42.855Z,45.30
2017-09-06T23:22:10.939Z,44.60
2017-09-06T23:24:39.038Z,45.10
2017-09-06T23:27:07.130Z,45.10
2017-09-06T23:29:35.226Z,45.50
2017-09-06T23:32:03.702Z,44.60
2017-09-06T23:34:31.807Z,45.30
2017-09-06T23:36:59.891Z,45.80
2017-09-06T23:39:28.038Z,46.50
2017-09-06T23:41:56.099Z,47.80
2017-09-06T23:44:24.580Z,48.00
2017-09-06T23:46:52.691Z,48.50
2017-09-06T23:49:21.635Z,48.90
2017-09-06T23:51:49.720Z,48.50
2017-09-06T23:54:18.210Z,47.90
2017-09-06T23:56:46.278Z,48.40
2017-09-06T23:59:14.387Z,49.20
